sensor_id;sensor_type;location;lat;lon;timestamp;temperature;humidity
51011;DHT22;37038;50.182;8.624;2022-08-19T00:00:58;20.10;99.90
51011;DHT22;37038;50.182;8.624;2022-08-19T00:03:49;20.10;99.90
51011;DHT22;37038;50.182;8.624;2022-08-19T00:06:39;20.10;99.90
51011;DHT22;37038;50.182;8.624;2022-08-19T00:09:29;20.10;99.90
51011;DHT22;37038;50.182;8.624;2022-08-19T00:12:17;20.10;99.90
51011;DHT22;37038;50.182;8.624;2022-08-19T00:15:08;20.10;99.90
51011;DHT22;37038;50.182;8.624;2022-08-19T00:18:00;20.20;99.90
51011;DHT22;37038;50.182;8.624;2022-08-19T00:20:47;20.20;99.90
51011;DHT22;37038;50.182;8.624;2022-08-19T00:23:36;20.20;99.90
51011;DHT22;37038;50.182;8.624;2022-08-19T00:26:25;20.20;99.90
51011;DHT22;37038;50.182;8.624;2022-08-19T00:29:17;20.20;99.90
51011;DHT22;37038;50.182;8.624;2022-08-19T00:32:06;20.20;99.90
51011;DHT22;37038;50.182;8.624;2022-08-19T00:34:57;20.20;99.90
51011;DHT22;37038;50.182;8.624;2022-08-19T00:37:48;20.30;99.90
51011;DHT22;37038;50.182;8.624;2022-08-19T00:40:36;20.20;99.90
51011;DHT22;37038;50.182;8.624;2022-08-19T00:43:26;20.20;99.90
51011;DHT22;37038;50.182;8.624;2022-08-19T00:46:15;20.30;99.90
51011;DHT22;37038;50.182;8.624;2022-08-19T00:49:09;20.30;99.90
51011;DHT22;37038;50.182;8.624;2022-08-19T00:52:22;20.30;99.90
51011;DHT22;37038;50.182;8.624;2022-08-19T00:55:19;20.30;99.90
51011;DHT22;37038;50.182;8.624;2022-08-19T00:58:16;20.30;99.90
51011;DHT22;37038;50.182;8.624;2022-08-19T01:01:07;20.30;99.90
51011;DHT22;37038;50.182;8.624;2022-08-19T01:03:55;20.20;99.90
51011;DHT22;37038;50.182;8.624;2022-08-19T01:06:45;20.30;99.90
51011;DHT22;37038;50.182;8.624;2022-08-19T01:09:33;20.30;99.90
51011;DHT22;37038;50.182;8.624;2022-08-19T01:12:21;20.30;99.90
51011;DHT22;37038;50.182;8.624;2022-08-19T01:15:12;20.30;99.90
51011;DHT22;37038;50.182;8.624;2022-08-19T01:18:06;20.30;99.90
51011;DHT22;37038;50.182;8.624;2022-08-19T01:21:02;20.30;99.90
51011;DHT22;37038;50.182;8.624;2022-08-19T01:23:54;20.40;99.90
51011;DHT22;37038;50.182;8.624;2022-08-19T01:26:45;20.40;99.90
51011;DHT22;37038;50.182;8.624;2022-08-19T01:29:34;20.40;99.90
51011;DHT22;37038;50.182;8.624;2022-08-19T01:32:27;20.40;99.90
51011;DHT22;37038;50.182;8.624;2022-08-19T01:35:22;20.40;99.90
51011;DHT22;37038;50.182;8.624;2022-08-19T01:38:24;20.40;99.90
51011;DHT22;37038;50.182;8.624;2022-08-19T01:41:14;20.40;99.90
51011;DHT22;37038;50.182;8.624;2022-08-19T01:44:03;20.40;99.90
51011;DHT22;37038;50.182;8.624;2022-08-19T01:47:05;20.40;99.90
51011;DHT22;37038;50.182;8.624;2022-08-19T01:49:54;20.40;99.90
51011;DHT22;37038;50.182;8.624;2022-08-19T01:52:43;20.40;99.90
51011;DHT22;37038;50.182;8.624;2022-08-19T01:55:32;20.40;99.90
51011;DHT22;37038;50.182;8.624;2022-08-19T01:58:23;20.40;99.90
51011;DHT22;37038;50.182;8.624;2022-08-19T02:01:14;20.40;99.90
51011;DHT22;37038;50.182;8.624;2022-08-19T02:04:02;20.40;99.90
51011;DHT22;37038;50.182;8.624;2022-08-19T02:06:50;20.30;99.90
51011;DHT22;37038;50.182;8.624;2022-08-19T02:09:39;20.30;99.90
51011;DHT22;37038;50.182;8.624;2022-08-19T02:12:27;20.30;99.90
51011;DHT22;37038;50.182;8.624;2022-08-19T02:15:16;20.30;99.90
51011;DHT22;37038;50.182;8.624;2022-08-19T02:18:06;20.30;99.90
51011;DHT22;37038;50.182;8.624;2022-08-19T02:20:55;20.30;99.90
51011;DHT22;37038;50.182;8.624;2022-08-19T02:23:44;20.20;99.90
51011;DHT22;37038;50.182;8.624;2022-08-19T02:26:32;20.20;99.90
51011;DHT22;37038;50.182;8.624;2022-08-19T02:29:20;20.10;99.90
51011;DHT22;37038;50.182;8.624;2022-08-19T02:32:08;20.10;99.90
51011;DHT22;37038;50.182;8.624;2022-08-19T02:34:56;20.10;99.90
51011;DHT22;37038;50.182;8.624;2022-08-19T02:37:44;20.10;99.90
51011;DHT22;37038;50.182;8.624;2022-08-19T02:40:54;20.10;99.90
51011;DHT22;37038;50.182;8.624;2022-08-19T02:43:47;20.10;99.90
51011;DHT22;37038;50.182;8.624;2022-08-19T02:46:55;20.00;99.90
51011;DHT22;37038;50.182;8.624;2022-08-19T02:49:43;20.00;99.90
51011;DHT22;37038;50.182;8.624;2022-08-19T02:52:33;19.90;99.90
51011;DHT22;37038;50.182;8.624;2022-08-19T02:55:21;19.90;99.90
51011;DHT22;37038;50.182;8.624;2022-08-19T02:58:09;19.90;99.90
51011;DHT22;37038;50.182;8.624;2022-08-19T03:00:57;19.90;99.90
51011;DHT22;37038;50.182;8.624;2022-08-19T03:03:46;19.90;99.90
51011;DHT22;37038;50.182;8.624;2022-08-19T03:06:37;19.90;99.90
51011;DHT22;37038;50.182;8.624;2022-08-19T03:09:32;19.90;99.90
51011;DHT22;37038;50.182;8.624;2022-08-19T03:12:20;19.80;99.90
51011;DHT22;37038;50.182;8.624;2022-08-19T03:15:08;19.80;99.90
51011;DHT22;37038;50.182;8.624;2022-08-19T03:17:56;19.80;99.90
51011;DHT22;37038;50.182;8.624;2022-08-19T03:20:49;19.80;99.90
51011;DHT22;37038;50.182;8.624;2022-08-19T03:23:40;19.80;99.90
51011;DHT22;37038;50.182;8.624;2022-08-19T03:26:30;19.70;99.90
51011;DHT22;37038;50.182;8.624;2022-08-19T03:29:19;19.70;99.90
51011;DHT22;37038;50.182;8.624;2022-08-19T03:32:17;19.60;99.90
51011;DHT22;37038;50.182;8.624;2022-08-19T03:35:19;19.60;99.90
51011;DHT22;37038;50.182;8.624;2022-08-19T03:38:07;19.60;99.90
51011;DHT22;37038;50.182;8.624;2022-08-19T03:40:55;19.60;99.90
51011;DHT22;37038;50.182;8.624;2022-08-19T03:43:44;19.60;99.90
51011;DHT22;37038;50.182;8.624;2022-08-19T03:46:37;19.70;99.90
51011;DHT22;37038;50.182;8.624;2022-08-19T03:49:32;19.70;99.90
51011;DHT22;37038;50.182;8.624;2022-08-19T03:52:23;19.80;99.90
51011;DHT22;37038;50.182;8.624;2022-08-19T03:55:11;19.80;99.90
51011;DHT22;37038;50.182;8.624;2022-08-19T03:57:58;19.80;99.90
51011;DHT22;37038;50.182;8.624;2022-08-19T04:00:46;19.70;99.90
51011;DHT22;37038;50.182;8.624;2022-08-19T04:03:35;19.70;99.90
51011;DHT22;37038;50.182;8.624;2022-08-19T04:06:26;19.70;99.90
51011;DHT22;37038;50.182;8.624;2022-08-19T04:09:15;19.70;99.90
51011;DHT22;37038;50.182;8.624;2022-08-19T04:12:04;19.60;99.90
51011;DHT22;37038;50.182;8.624;2022-08-19T04:14:52;19.60;99.90
51011;DHT22;37038;50.182;8.624;2022-08-19T04:17:43;19.50;99.90
51011;DHT22;37038;50.182;8.624;2022-08-19T04:20:31;19.50;99.90
51011;DHT22;37038;50.182;8.624;2022-08-19T04:23:19;19.40;99.90
51011;DHT22;37038;50.182;8.624;2022-08-19T04:26:13;19.40;99.90
51011;DHT22;37038;50.182;8.624;2022-08-19T04:29:03;19.40;99.90
51011;DHT22;37038;50.182;8.624;2022-08-19T04:31:59;19.40;99.90
51011;DHT22;37038;50.182;8.624;2022-08-19T04:34:55;19.40;99.90
51011;DHT22;37038;50.182;8.624;2022-08-19T04:38:04;19.40;99.90
51011;DHT22;37038;50.182;8.624;2022-08-19T04:40:52;19.30;99.90
51011;DHT22;37038;50.182;8.624;2022-08-19T04:43:58;19.30;99.90
51011;DHT22;37038;50.182;8.624;2022-08-19T04:46:51;19.30;99.90
51011;DHT22;37038;50.182;8.624;2022-08-19T04:49:39;19.30;99.90
51011;DHT22;37038;50.182;8.624;2022-08-19T04:52:27;19.40;99.90
51011;DHT22;37038;50.182;8.624;2022-08-19T04:55:15;19.40;99.90
51011;DHT22;37038;50.182;8.624;2022-08-19T04:58:03;19.40;99.90
51011;DHT22;37038;50.182;8.624;2022-08-19T05:00:52;19.50;99.90
51011;DHT22;37038;50.182;8.624;2022-08-19T05:03:40;19.50;99.90
51011;DHT22;37038;50.182;8.624;2022-08-19T05:06:28;19.60;99.90
51011;DHT22;37038;50.182;8.624;2022-08-19T05:09:16;19.60;99.90
51011;DHT22;37038;50.182;8.624;2022-08-19T05:12:04;19.60;99.90
51011;DHT22;37038;50.182;8.624;2022-08-19T05:14:53;19.70;99.90
51011;DHT22;37038;50.182;8.624;2022-08-19T05:17:41;19.80;99.90
51011;DHT22;37038;50.182;8.624;2022-08-19T05:20:49;19.90;99.90
51011;DHT22;37038;50.182;8.624;2022-08-19T05:23:55;19.90;99.90
51011;DHT22;37038;50.182;8.624;2022-08-19T05:26:47;20.00;99.90
51011;DHT22;37038;50.182;8.624;2022-08-19T05:29:36;20.10;99.90
51011;DHT22;37038;50.182;8.624;2022-08-19T05:32:24;20.30;99.90
51011;DHT22;37038;50.182;8.624;2022-08-19T05:35:12;20.40;99.90
51011;DHT22;37038;50.182;8.624;2022-08-19T05:38:00;20.50;99.90
51011;DHT22;37038;50.182;8.624;2022-08-19T05:40:48;20.60;99.90
51011;DHT22;37038;50.182;8.624;2022-08-19T05:43:37;20.60;99.90
51011;DHT22;37038;50.182;8.624;2022-08-19T05:46:34;20.70;99.90
51011;DHT22;37038;50.182;8.624;2022-08-19T05:49:26;20.90;99.90
51011;DHT22;37038;50.182;8.624;2022-08-19T05:52:16;21.00;99.90
51011;DHT22;37038;50.182;8.624;2022-08-19T05:55:06;21.10;99.90
51011;DHT22;37038;50.182;8.624;2022-08-19T05:57:54;21.20;99.90
51011;DHT22;37038;50.182;8.624;2022-08-19T06:00:43;21.30;99.90
51011;DHT22;37038;50.182;8.624;2022-08-19T06:03:33;21.30;99.90
51011;DHT22;37038;50.182;8.624;2022-08-19T06:06:21;21.40;99.90
51011;DHT22;37038;50.182;8.624;2022-08-19T06:09:09;21.50;99.90
51011;DHT22;37038;50.182;8.624;2022-08-19T06:11:58;21.60;99.90
51011;DHT22;37038;50.182;8.624;2022-08-19T06:14:48;21.70;99.90
51011;DHT22;37038;50.182;8.624;2022-08-19T06:17:48;21.70;99.90
51011;DHT22;37038;50.182;8.624;2022-08-19T06:20:36;21.80;99.90
51011;DHT22;37038;50.182;8.624;2022-08-19T06:23:42;21.80;99.90
51011;DHT22;37038;50.182;8.624;2022-08-19T06:26:30;21.80;99.90
51011;DHT22;37038;50.182;8.624;2022-08-19T06:29:23;21.80;99.90
51011;DHT22;37038;50.182;8.624;2022-08-19T06:32:15;21.70;99.90
51011;DHT22;37038;50.182;8.624;2022-08-19T06:35:04;21.60;99.90
51011;DHT22;37038;50.182;8.624;2022-08-19T06:37:53;21.60;99.90
51011;DHT22;37038;50.182;8.624;2022-08-19T06:40:42;21.70;99.90
51011;DHT22;37038;50.182;8.624;2022-08-19T06:43:39;21.80;99.90
51011;DHT22;37038;50.182;8.624;2022-08-19T06:46:30;22.00;99.90
51011;DHT22;37038;50.182;8.624;2022-08-19T06:49:22;22.20;99.90
51011;DHT22;37038;50.182;8.624;2022-08-19T06:52:14;22.40;99.90
51011;DHT22;37038;50.182;8.624;2022-08-19T06:55:03;22.50;99.90
51011;DHT22;37038;50.182;8.624;2022-08-19T06:57:55;22.60;99.90
51011;DHT22;37038;50.182;8.624;2022-08-19T07:00:46;22.70;99.90
51011;DHT22;37038;50.182;8.624;2022-08-19T07:03:38;22.80;99.90
51011;DHT22;37038;50.182;8.624;2022-08-19T07:06:29;22.90;99.90
51011;DHT22;37038;50.182;8.624;2022-08-19T07:09:33;23.00;99.90
51011;DHT22;37038;50.182;8.624;2022-08-19T07:12:30;23.10;99.90
51011;DHT22;37038;50.182;8.624;2022-08-19T07:15:27;23.30;99.90
51011;DHT22;37038;50.182;8.624;2022-08-19T07:18:20;23.50;99.90
51011;DHT22;37038;50.182;8.624;2022-08-19T07:21:20;23.70;99.90
51011;DHT22;37038;50.182;8.624;2022-08-19T07:24:18;23.80;99.90
51011;DHT22;37038;50.182;8.624;2022-08-19T07:27:14;23.80;99.90
51011;DHT22;37038;50.182;8.624;2022-08-19T07:30:05;23.80;99.90
51011;DHT22;37038;50.182;8.624;2022-08-19T07:33:00;23.70;99.90
51011;DHT22;37038;50.182;8.624;2022-08-19T07:35:51;23.70;99.90
51011;DHT22;37038;50.182;8.624;2022-08-19T07:38:45;23.70;99.90
51011;DHT22;37038;50.182;8.624;2022-08-19T07:41:37;23.90;99.90
51011;DHT22;37038;50.182;8.624;2022-08-19T07:44:30;24.00;99.90
51011;DHT22;37038;50.182;8.624;2022-08-19T07:47:21;24.10;99.90
51011;DHT22;37038;50.182;8.624;2022-08-19T07:50:33;24.40;99.90
51011;DHT22;37038;50.182;8.624;2022-08-19T07:53:26;24.50;99.90
51011;DHT22;37038;50.182;8.624;2022-08-19T07:56:19;24.60;99.90
51011;DHT22;37038;50.182;8.624;2022-08-19T07:59:11;24.60;99.90
51011;DHT22;37038;50.182;8.624;2022-08-19T08:02:00;24.70;99.90
51011;DHT22;37038;50.182;8.624;2022-08-19T08:04:52;25.00;99.90
51011;DHT22;37038;50.182;8.624;2022-08-19T08:08:01;25.00;99.90
51011;DHT22;37038;50.182;8.624;2022-08-19T08:11:37;25.00;99.90
51011;DHT22;37038;50.182;8.624;2022-08-19T08:14:49;25.10;99.90
51011;DHT22;37038;50.182;8.624;2022-08-19T08:17:45;25.50;99.90
51011;DHT22;37038;50.182;8.624;2022-08-19T08:20:41;25.40;99.90
51011;DHT22;37038;50.182;8.624;2022-08-19T08:23:33;25.30;99.90
51011;DHT22;37038;50.182;8.624;2022-08-19T08:26:28;25.20;99.90
51011;DHT22;37038;50.182;8.624;2022-08-19T08:29:23;25.70;99.90
51011;DHT22;37038;50.182;8.624;2022-08-19T08:32:18;26.30;99.90
51011;DHT22;37038;50.182;8.624;2022-08-19T08:35:14;26.70;99.90
51011;DHT22;37038;50.182;8.624;2022-08-19T08:38:07;26.60;99.90
51011;DHT22;37038;50.182;8.624;2022-08-19T08:41:04;26.80;99.90
51011;DHT22;37038;50.182;8.624;2022-08-19T08:44:42;27.10;99.90
51011;DHT22;37038;50.182;8.624;2022-08-19T08:47:38;27.00;99.90
51011;DHT22;37038;50.182;8.624;2022-08-19T08:50:40;27.40;99.90
51011;DHT22;37038;50.182;8.624;2022-08-19T08:53:32;28.10;99.90
51011;DHT22;37038;50.182;8.624;2022-08-19T08:56:30;28.80;99.90
51011;DHT22;37038;50.182;8.624;2022-08-19T08:59:36;28.50;99.90
51011;DHT22;37038;50.182;8.624;2022-08-19T09:02:28;28.60;99.90
51011;DHT22;37038;50.182;8.624;2022-08-19T09:05:20;28.50;99.90
51011;DHT22;37038;50.182;8.624;2022-08-19T09:08:43;28.60;99.90
51011;DHT22;37038;50.182;8.624;2022-08-19T09:11:50;29.30;99.90
51011;DHT22;37038;50.182;8.624;2022-08-19T09:15:25;29.80;99.90
51011;DHT22;37038;50.182;8.624;2022-08-19T09:18:24;29.10;99.90
51011;DHT22;37038;50.182;8.624;2022-08-19T09:21:19;29.20;99.90
51011;DHT22;37038;50.182;8.624;2022-08-19T09:24:19;29.40;99.90
51011;DHT22;37038;50.182;8.624;2022-08-19T09:27:10;29.70;99.90
51011;DHT22;37038;50.182;8.624;2022-08-19T09:30:06;29.20;99.90
51011;DHT22;37038;50.182;8.624;2022-08-19T09:32:58;29.20;99.90
51011;DHT22;37038;50.182;8.624;2022-08-19T09:36:00;29.50;99.90
51011;DHT22;37038;50.182;8.624;2022-08-19T09:38:58;29.00;99.90
51011;DHT22;37038;50.182;8.624;2022-08-19T09:41:52;28.60;99.90
51011;DHT22;37038;50.182;8.624;2022-08-19T09:44:43;28.20;99.90
51011;DHT22;37038;50.182;8.624;2022-08-19T09:47:34;28.30;99.90
51011;DHT22;37038;50.182;8.624;2022-08-19T09:50:29;28.10;99.90
51011;DHT22;37038;50.182;8.624;2022-08-19T09:53:24;27.90;99.90
51011;DHT22;37038;50.182;8.624;2022-08-19T09:56:18;27.80;99.90
51011;DHT22;37038;50.182;8.624;2022-08-19T09:59:09;27.60;99.90
51011;DHT22;37038;50.182;8.624;2022-08-19T10:02:02;27.70;99.90
51011;DHT22;37038;50.182;8.624;2022-08-19T10:05:00;28.30;99.90
51011;DHT22;37038;50.182;8.624;2022-08-19T10:08:18;28.80;99.90
51011;DHT22;37038;50.182;8.624;2022-08-19T10:11:15;29.20;99.90
51011;DHT22;37038;50.182;8.624;2022-08-19T10:14:25;29.70;99.90
51011;DHT22;37038;50.182;8.624;2022-08-19T10:17:18;29.30;99.90
51011;DHT22;37038;50.182;8.624;2022-08-19T10:20:15;29.20;99.90
51011;DHT22;37038;50.182;8.624;2022-08-19T10:23:07;29.00;99.90
51011;DHT22;37038;50.182;8.624;2022-08-19T10:26:01;28.60;99.90
51011;DHT22;37038;50.182;8.624;2022-08-19T10:28:51;28.50;99.90
51011;DHT22;37038;50.182;8.624;2022-08-19T10:31:47;28.90;99.90
51011;DHT22;37038;50.182;8.624;2022-08-19T10:34:51;29.30;98.80
51011;DHT22;37038;50.182;8.624;2022-08-19T10:37:46;28.90;99.80
51011;DHT22;37038;50.182;8.624;2022-08-19T10:40:46;29.10;99.90
51011;DHT22;37038;50.182;8.624;2022-08-19T10:43:42;29.20;99.30
51011;DHT22;37038;50.182;8.624;2022-08-19T10:46:43;28.80;99.90
51011;DHT22;37038;50.182;8.624;2022-08-19T10:49:39;28.40;99.90
51011;DHT22;37038;50.182;8.624;2022-08-19T10:52:49;27.70;99.90
51011;DHT22;37038;50.182;8.624;2022-08-19T10:55:39;27.20;99.90
51011;DHT22;37038;50.182;8.624;2022-08-19T10:58:49;26.80;99.90
51011;DHT22;37038;50.182;8.624;2022-08-19T11:01:42;26.90;99.90
51011;DHT22;37038;50.182;8.624;2022-08-19T11:04:34;27.00;99.90
51011;DHT22;37038;50.182;8.624;2022-08-19T11:07:25;27.30;99.90
51011;DHT22;37038;50.182;8.624;2022-08-19T11:10:16;27.70;99.90
51011;DHT22;37038;50.182;8.624;2022-08-19T11:13:11;27.80;99.90
51011;DHT22;37038;50.182;8.624;2022-08-19T11:16:08;28.10;99.90
51011;DHT22;37038;50.182;8.624;2022-08-19T11:19:05;28.20;99.90
51011;DHT22;37038;50.182;8.624;2022-08-19T11:21:59;28.10;99.90
51011;DHT22;37038;50.182;8.624;2022-08-19T11:24:53;27.60;99.90
51011;DHT22;37038;50.182;8.624;2022-08-19T11:27:45;27.20;99.90
51011;DHT22;37038;50.182;8.624;2022-08-19T11:30:41;27.10;99.90
51011;DHT22;37038;50.182;8.624;2022-08-19T11:33:32;27.10;99.90
51011;DHT22;37038;50.182;8.624;2022-08-19T11:36:23;27.10;99.90
51011;DHT22;37038;50.182;8.624;2022-08-19T11:39:17;27.20;99.90
51011;DHT22;37038;50.182;8.624;2022-08-19T11:42:08;27.20;99.90
51011;DHT22;37038;50.182;8.624;2022-08-19T11:45:18;27.20;99.90
51011;DHT22;37038;50.182;8.624;2022-08-19T11:48:07;27.30;99.90
51011;DHT22;37038;50.182;8.624;2022-08-19T11:51:10;27.30;99.30
51011;DHT22;37038;50.182;8.624;2022-08-19T11:54:07;27.20;97.40
51011;DHT22;37038;50.182;8.624;2022-08-19T11:56:57;27.50;98.70
51011;DHT22;37038;50.182;8.624;2022-08-19T11:59:52;27.70;98.20
51011;DHT22;37038;50.182;8.624;2022-08-19T12:02:44;27.90;95.90
51011;DHT22;37038;50.182;8.624;2022-08-19T12:05:36;27.80;94.70
51011;DHT22;37038;50.182;8.624;2022-08-19T12:08:30;27.70;94.50
51011;DHT22;37038;50.182;8.624;2022-08-19T12:11:27;27.40;95.70
51011;DHT22;37038;50.182;8.624;2022-08-19T12:14:22;27.40;97.10
51011;DHT22;37038;50.182;8.624;2022-08-19T12:17:16;27.40;96.20
51011;DHT22;37038;50.182;8.624;2022-08-19T12:20:06;27.40;96.90
51011;DHT22;37038;50.182;8.624;2022-08-19T12:22:56;27.50;95.60
51011;DHT22;37038;50.182;8.624;2022-08-19T12:25:48;27.40;94.50
51011;DHT22;37038;50.182;8.624;2022-08-19T12:28:42;27.30;95.00
51011;DHT22;37038;50.182;8.624;2022-08-19T12:31:33;27.20;95.40
51011;DHT22;37038;50.182;8.624;2022-08-19T12:34:25;27.20;95.30
51011;DHT22;37038;50.182;8.624;2022-08-19T12:37:19;27.30;96.40
51011;DHT22;37038;50.182;8.624;2022-08-19T12:40:08;27.30;95.80
51011;DHT22;37038;50.182;8.624;2022-08-19T12:43:00;27.20;95.60
51011;DHT22;37038;50.182;8.624;2022-08-19T12:45:56;27.00;96.50
51011;DHT22;37038;50.182;8.624;2022-08-19T12:48:48;26.90;95.70
51011;DHT22;37038;50.182;8.624;2022-08-19T12:51:44;26.80;96.10
51011;DHT22;37038;50.182;8.624;2022-08-19T12:54:38;26.80;94.90
51011;DHT22;37038;50.182;8.624;2022-08-19T12:57:29;26.80;95.10
51011;DHT22;37038;50.182;8.624;2022-08-19T13:00:24;26.90;94.40
51011;DHT22;37038;50.182;8.624;2022-08-19T13:03:15;27.00;94.40
51011;DHT22;37038;50.182;8.624;2022-08-19T13:06:05;27.30;93.60
51011;DHT22;37038;50.182;8.624;2022-08-19T13:08:56;27.60;93.40
51011;DHT22;37038;50.182;8.624;2022-08-19T13:11:48;27.80;92.20
51011;DHT22;37038;50.182;8.624;2022-08-19T13:14:40;28.00;91.50
51011;DHT22;37038;50.182;8.624;2022-08-19T13:17:33;28.10;92.10
51011;DHT22;37038;50.182;8.624;2022-08-19T13:20:26;28.20;91.10
51011;DHT22;37038;50.182;8.624;2022-08-19T13:23:17;28.10;91.30
51011;DHT22;37038;50.182;8.624;2022-08-19T13:26:13;28.00;91.60
51011;DHT22;37038;50.182;8.624;2022-08-19T13:29:01;28.00;92.60
51011;DHT22;37038;50.182;8.624;2022-08-19T13:32:10;28.00;92.10
51011;DHT22;37038;50.182;8.624;2022-08-19T13:35:19;27.90;91.40
51011;DHT22;37038;50.182;8.624;2022-08-19T13:38:10;27.90;91.40
51011;DHT22;37038;50.182;8.624;2022-08-19T13:41:05;27.90;91.80
51011;DHT22;37038;50.182;8.624;2022-08-19T13:44:02;28.00;90.20
51011;DHT22;37038;50.182;8.624;2022-08-19T13:46:52;28.00;90.60
51011;DHT22;37038;50.182;8.624;2022-08-19T13:49:43;28.20;90.30
51011;DHT22;37038;50.182;8.624;2022-08-19T13:52:35;28.30;89.00
51011;DHT22;37038;50.182;8.624;2022-08-19T13:55:27;28.40;88.20
51011;DHT22;37038;50.182;8.624;2022-08-19T13:58:18;28.50;87.80
51011;DHT22;37038;50.182;8.624;2022-08-19T14:01:09;28.70;86.70
51011;DHT22;37038;50.182;8.624;2022-08-19T14:04:01;28.70;86.80
51011;DHT22;37038;50.182;8.624;2022-08-19T14:06:52;28.70;86.20
51011;DHT22;37038;50.182;8.624;2022-08-19T14:09:43;28.70;84.50
51011;DHT22;37038;50.182;8.624;2022-08-19T14:12:38;28.70;86.30
51011;DHT22;37038;50.182;8.624;2022-08-19T14:15:30;28.60;87.00
51011;DHT22;37038;50.182;8.624;2022-08-19T14:18:21;28.30;84.90
51011;DHT22;37038;50.182;8.624;2022-08-19T14:21:20;28.00;87.00
51011;DHT22;37038;50.182;8.624;2022-08-19T14:24:13;27.90;85.90
51011;DHT22;37038;50.182;8.624;2022-08-19T14:27:05;27.90;83.90
51011;DHT22;37038;50.182;8.624;2022-08-19T14:29:56;27.80;85.70
51011;DHT22;37038;50.182;8.624;2022-08-19T14:32:47;27.80;86.30
51011;DHT22;37038;50.182;8.624;2022-08-19T14:35:40;27.90;85.50
51011;DHT22;37038;50.182;8.624;2022-08-19T14:38:34;27.90;86.00
51011;DHT22;37038;50.182;8.624;2022-08-19T14:41:24;27.90;87.90
51011;DHT22;37038;50.182;8.624;2022-08-19T14:44:17;28.00;84.10
51011;DHT22;37038;50.182;8.624;2022-08-19T14:47:07;28.10;85.40
51011;DHT22;37038;50.182;8.624;2022-08-19T14:49:58;28.20;82.40
51011;DHT22;37038;50.182;8.624;2022-08-19T14:53:05;28.20;82.70
51011;DHT22;37038;50.182;8.624;2022-08-19T14:56:01;28.20;82.00
51011;DHT22;37038;50.182;8.624;2022-08-19T14:58:56;28.20;81.00
51011;DHT22;37038;50.182;8.624;2022-08-19T15:01:49;28.20;80.20
51011;DHT22;37038;50.182;8.624;2022-08-19T15:04:41;28.20;78.40
51011;DHT22;37038;50.182;8.624;2022-08-19T15:07:33;28.10;78.50
51011;DHT22;37038;50.182;8.624;2022-08-19T15:10:25;28.10;80.10
51011;DHT22;37038;50.182;8.624;2022-08-19T15:13:17;28.20;79.60
51011;DHT22;37038;50.182;8.624;2022-08-19T15:16:07;28.00;78.40
51011;DHT22;37038;50.182;8.624;2022-08-19T15:19:07;28.00;78.40
51011;DHT22;37038;50.182;8.624;2022-08-19T15:21:59;27.90;77.00
51011;DHT22;37038;50.182;8.624;2022-08-19T15:24:50;27.80;77.40
51011;DHT22;37038;50.182;8.624;2022-08-19T15:27:40;27.80;77.50
51011;DHT22;37038;50.182;8.624;2022-08-19T15:30:32;27.80;76.50
51011;DHT22;37038;50.182;8.624;2022-08-19T15:33:23;27.70;76.10
51011;DHT22;37038;50.182;8.624;2022-08-19T15:36:14;27.70;77.90
51011;DHT22;37038;50.182;8.624;2022-08-19T15:39:06;27.70;76.10
51011;DHT22;37038;50.182;8.624;2022-08-19T15:42:00;27.70;75.70
51011;DHT22;37038;50.182;8.624;2022-08-19T15:44:50;27.80;76.50
51011;DHT22;37038;50.182;8.624;2022-08-19T15:47:42;27.80;76.60
51011;DHT22;37038;50.182;8.624;2022-08-19T15:50:34;27.90;74.50
51011;DHT22;37038;50.182;8.624;2022-08-19T15:53:26;27.90;74.20
51011;DHT22;37038;50.182;8.624;2022-08-19T15:56:17;27.90;74.40
51011;DHT22;37038;50.182;8.624;2022-08-19T15:59:08;28.00;74.50
51011;DHT22;37038;50.182;8.624;2022-08-19T16:02:19;28.10;73.50
51011;DHT22;37038;50.182;8.624;2022-08-19T16:05:31;28.20;73.40
51011;DHT22;37038;50.182;8.624;2022-08-19T16:08:41;28.20;75.10
51011;DHT22;37038;50.182;8.624;2022-08-19T16:11:37;28.30;74.50
51011;DHT22;37038;50.182;8.624;2022-08-19T16:14:35;28.40;73.20
51011;DHT22;37038;50.182;8.624;2022-08-19T16:17:26;28.30;71.60
51011;DHT22;37038;50.182;8.624;2022-08-19T16:20:19;28.30;71.80
51011;DHT22;37038;50.182;8.624;2022-08-19T16:23:11;28.30;70.40
51011;DHT22;37038;50.182;8.624;2022-08-19T16:26:03;28.10;70.70
51011;DHT22;37038;50.182;8.624;2022-08-19T16:28:56;28.10;71.20
51011;DHT22;37038;50.182;8.624;2022-08-19T16:31:45;28.10;69.20
51011;DHT22;37038;50.182;8.624;2022-08-19T16:34:43;28.20;69.60
51011;DHT22;37038;50.182;8.624;2022-08-19T16:37:34;28.20;69.50
51011;DHT22;37038;50.182;8.624;2022-08-19T16:40:25;28.10;68.00
51011;DHT22;37038;50.182;8.624;2022-08-19T16:43:16;28.10;68.10
51011;DHT22;37038;50.182;8.624;2022-08-19T16:46:09;28.00;69.20
51011;DHT22;37038;50.182;8.624;2022-08-19T16:49:05;28.00;70.40
51011;DHT22;37038;50.182;8.624;2022-08-19T16:51:55;28.00;69.90
51011;DHT22;37038;50.182;8.624;2022-08-19T16:54:47;28.00;69.90
51011;DHT22;37038;50.182;8.624;2022-08-19T16:57:37;27.90;68.20
51011;DHT22;37038;50.182;8.624;2022-08-19T17:00:28;27.90;69.50
51011;DHT22;37038;50.182;8.624;2022-08-19T17:03:21;27.90;69.30
51011;DHT22;37038;50.182;8.624;2022-08-19T17:06:28;27.90;69.10
51011;DHT22;37038;50.182;8.624;2022-08-19T17:09:19;27.80;68.80
51011;DHT22;37038;50.182;8.624;2022-08-19T17:12:15;27.80;68.80
51011;DHT22;37038;50.182;8.624;2022-08-19T17:15:06;27.70;68.90
51011;DHT22;37038;50.182;8.624;2022-08-19T17:17:59;27.70;69.20
51011;DHT22;37038;50.182;8.624;2022-08-19T17:20:52;27.70;69.30
51011;DHT22;37038;50.182;8.624;2022-08-19T17:23:44;27.70;68.60
51011;DHT22;37038;50.182;8.624;2022-08-19T17:26:36;27.70;69.70
51011;DHT22;37038;50.182;8.624;2022-08-19T17:29:27;27.60;70.10
51011;DHT22;37038;50.182;8.624;2022-08-19T17:32:17;27.60;69.20
51011;DHT22;37038;50.182;8.624;2022-08-19T17:35:14;27.60;70.20
51011;DHT22;37038;50.182;8.624;2022-08-19T17:38:17;27.60;70.40
51011;DHT22;37038;50.182;8.624;2022-08-19T17:41:09;27.50;71.50
51011;DHT22;37038;50.182;8.624;2022-08-19T17:44:01;27.40;72.40
51011;DHT22;37038;50.182;8.624;2022-08-19T17:46:52;27.40;73.10
51011;DHT22;37038;50.182;8.624;2022-08-19T17:49:45;27.30;73.10
51011;DHT22;37038;50.182;8.624;2022-08-19T17:52:37;27.20;72.60
51011;DHT22;37038;50.182;8.624;2022-08-19T17:55:28;27.20;73.50
51011;DHT22;37038;50.182;8.624;2022-08-19T17:58:21;27.10;73.80
51011;DHT22;37038;50.182;8.624;2022-08-19T18:01:17;27.00;73.90
51011;DHT22;37038;50.182;8.624;2022-08-19T18:04:11;26.90;75.00
51011;DHT22;37038;50.182;8.624;2022-08-19T18:07:01;26.70;75.70
51011;DHT22;37038;50.182;8.624;2022-08-19T18:09:52;26.60;75.70
51011;DHT22;37038;50.182;8.624;2022-08-19T18:12:44;26.60;76.00
51011;DHT22;37038;50.182;8.624;2022-08-19T18:15:36;26.50;76.70